createdAt,value
2022-11-01T00:04:14.654Z,16.90
2022-11-01T00:09:17.587Z,16.30
2022-11-01T00:14:20.672Z,13.90
2022-11-01T00:19:23.225Z,14.80
2022-11-01T00:24:30.932Z,15.30
2022-11-01T00:29:35.651Z,14.50
2022-11-01T00:34:38.110Z,14.90
2022-11-01T00:39:40.752Z,14.50
2022-11-01T00:44:43.246Z,14.20
2022-11-01T00:49:45.891Z,15.10
2022-11-01T00:54:48.371Z,15.50
2022-11-01T00:59:50.902Z,14.10
2022-11-01T01:04:54.683Z,16.60
2022-11-01T01:09:57.381Z,15.40
2022-11-01T01:15:00.178Z,18.70
2022-11-01T01:20:03.432Z,17.00
2022-11-01T01:25:06.147Z,12.60
2022-11-01T01:30:09.519Z,15.30
2022-11-01T01:35:12.051Z,15.90
2022-11-01T01:40:14.751Z,17.80
2022-11-01T01:45:23.180Z,15.40
2022-11-01T01:50:30.871Z,14.10
2022-11-01T01:55:37.810Z,12.90
2022-11-01T02:00:43.513Z,14.10
2022-11-01T02:10:54.993Z,13.60
2022-11-01T02:15:59.450Z,14.80
2022-11-01T02:21:17.278Z,13.30
2022-11-01T02:26:30.982Z,11.80
2022-11-01T02:31:45.910Z,12.20
2022-11-01T02:36:56.068Z,12.40
2022-11-01T02:42:09.733Z,14.50
2022-11-01T02:47:14.035Z,12.60
2022-11-01T02:52:25.954Z,17.50
2022-11-01T02:57:34.572Z,14.30
2022-11-01T03:02:44.154Z,11.10
2022-11-01T03:07:52.891Z,12.40
2022-11-01T03:13:06.403Z,12.90
2022-11-01T03:18:18.161Z,11.40
2022-11-01T03:23:27.628Z,11.20
2022-11-01T03:28:36.740Z,9.20
2022-11-01T03:33:45.437Z,11.80
2022-11-01T03:39:13.421Z,12.90
2022-11-01T03:44:16.537Z,12.30
2022-11-01T03:49:19.983Z,12.70
2022-11-01T03:54:22.903Z,11.50
2022-11-01T03:59:25.547Z,11.00
2022-11-01T04:04:28.068Z,12.80
2022-11-01T04:09:30.707Z,11.60
2022-11-01T04:14:36.115Z,9.30
2022-11-01T04:19:41.622Z,9.50
2022-11-01T04:24:44.382Z,14.70
2022-11-01T04:29:46.887Z,10.70
2022-11-01T04:34:49.421Z,11.60
2022-11-01T04:39:52.103Z,10.00
2022-11-01T04:44:54.727Z,10.80
2022-11-01T04:49:57.318Z,10.40
2022-11-01T04:55:02.272Z,8.70
2022-11-01T05:00:05.647Z,12.10
2022-11-01T05:05:12.575Z,9.70
2022-11-01T05:10:15.069Z,9.60
2022-11-01T05:15:17.607Z,8.20
2022-11-01T05:20:20.320Z,9.60
2022-11-01T05:25:22.862Z,10.40
2022-11-01T05:30:25.570Z,9.70
2022-11-01T05:35:30.086Z,9.70
2022-11-01T05:40:33.331Z,10.10
2022-11-01T05:45:35.872Z,13.40
2022-11-01T05:50:38.356Z,8.90
2022-11-01T05:55:41.269Z,8.30
2022-11-01T06:00:43.762Z,11.30
2022-11-01T06:05:46.267Z,8.30
2022-11-01T06:10:49.012Z,13.00
2022-11-01T06:15:58.475Z,11.30
2022-11-01T06:21:01.106Z,11.10
2022-11-01T06:26:05.009Z,10.00
2022-11-01T06:31:07.538Z,11.00
2022-11-01T06:36:10.179Z,10.30
2022-11-01T06:41:12.647Z,11.10
2022-11-01T06:46:15.322Z,10.00
2022-11-01T06:51:17.903Z,15.20
2022-11-01T06:56:20.603Z,11.00
2022-11-01T07:01:25.026Z,10.00
2022-11-01T07:06:30.785Z,10.60
2022-11-01T07:11:33.907Z,11.30
2022-11-01T07:16:36.815Z,13.80
2022-11-01T07:21:39.317Z,10.10
2022-11-01T07:26:41.949Z,11.20
2022-11-01T07:31:44.478Z,9.00
2022-11-01T07:36:47.000Z,11.00
2022-11-01T07:41:51.227Z,10.40
2022-11-01T07:46:53.784Z,10.60
2022-11-01T07:52:00.314Z,11.20
2022-11-01T07:57:05.649Z,10.90
2022-11-01T08:02:09.218Z,12.10
2022-11-01T08:07:11.844Z,11.60
2022-11-01T08:12:14.392Z,9.50
2022-11-01T08:17:16.908Z,13.90
2022-11-01T08:22:19.460Z,11.20
2022-11-01T08:27:21.975Z,12.50
2022-11-01T08:32:24.713Z,11.00
2022-11-01T08:37:27.427Z,11.50
2022-11-01T08:42:30.079Z,11.60
2022-11-01T08:47:32.620Z,10.20
2022-11-01T08:52:35.142Z,10.80
2022-11-01T08:57:37.809Z,11.40
2022-11-01T09:02:40.364Z,12.00
2022-11-01T09:07:42.854Z,10.90
2022-11-01T09:12:45.513Z,13.30
2022-11-01T09:17:48.128Z,13.50
2022-11-01T09:22:52.263Z,13.50
2022-11-01T09:27:56.810Z,13.50
2022-11-01T09:32:59.435Z,14.00
2022-11-01T09:38:04.017Z,15.00
2022-11-01T09:43:09.718Z,16.80
2022-11-01T09:48:15.234Z,14.80
2022-11-01T09:53:22.109Z,15.80
2022-11-01T09:59:50.645Z,15.40
2022-11-01T10:05:00.738Z,14.40
2022-11-01T10:10:14.340Z,13.40
2022-11-01T10:15:18.815Z,14.40
2022-11-01T10:20:26.466Z,15.40
2022-11-01T10:25:33.130Z,12.70
2022-11-01T10:30:43.069Z,13.50
2022-11-01T10:35:52.442Z,13.50
2022-11-01T10:41:04.254Z,12.30
2022-11-01T10:46:13.153Z,12.40
2022-11-01T10:51:26.716Z,13.70
2022-11-01T10:56:41.559Z,13.80
2022-11-01T11:01:47.756Z,12.40
2022-11-01T11:06:51.793Z,14.50
2022-11-01T11:11:59.992Z,14.40
2022-11-01T11:17:04.257Z,17.10
2022-11-01T11:22:08.865Z,18.70
2022-11-01T11:34:35.976Z,13.20
2022-11-01T11:39:39.434Z,16.40
2022-11-01T11:44:45.001Z,16.80
2022-11-01T11:49:50.020Z,18.10
2022-11-01T11:54:55.089Z,13.80
2022-11-01T12:00:01.134Z,11.80
2022-11-01T12:05:08.425Z,14.90
2022-11-01T12:10:30.706Z,18.40
2022-11-01T12:15:41.143Z,26.30
2022-11-01T12:20:53.200Z,20.10
2022-11-01T12:25:59.652Z,15.10
2022-11-01T12:31:11.713Z,15.90
2022-11-01T12:36:15.352Z,20.30
2022-11-01T12:41:24.202Z,15.90
2022-11-01T12:46:32.668Z,16.50
2022-11-01T12:51:40.506Z,21.60
2022-11-01T12:56:43.086Z,15.30
2022-11-01T13:14:06.699Z,17.00
2022-11-01T13:19:13.765Z,16.00
2022-11-01T13:24:27.020Z,19.40
2022-11-01T13:29:39.548Z,16.30
2022-11-01T13:34:55.370Z,18.10
2022-11-01T13:45:18.462Z,19.20
2022-11-01T13:50:35.487Z,14.50
2022-11-01T13:55:47.393Z,11.80
2022-11-01T14:00:54.230Z,15.20
2022-11-01T14:06:20.094Z,14.50
2022-11-01T14:11:28.617Z,18.60
2022-11-01T14:16:31.237Z,16.30
2022-11-01T14:21:39.608Z,17.40
2022-11-01T14:26:48.221Z,20.20
2022-11-01T14:31:52.653Z,15.90
2022-11-01T14:36:59.241Z,20.70
2022-11-01T14:42:05.292Z,21.50
2022-11-01T14:47:25.808Z,23.90
2022-11-01T14:52:35.783Z,18.90
2022-11-01T14:57:38.432Z,22.80
2022-11-01T15:02:41.423Z,29.10
2022-11-01T15:07:50.952Z,25.80
2022-11-01T15:12:58.391Z,20.70
2022-11-01T15:18:06.590Z,26.40
2022-11-01T15:23:28.316Z,21.40
2022-11-01T15:28:37.072Z,21.00
2022-11-01T15:34:05.194Z,26.60
2022-11-01T15:39:13.559Z,19.60
2022-11-01T15:44:20.482Z,26.50
2022-11-01T15:49:29.375Z,26.00
2022-11-01T16:01:39.493Z,21.70
2022-11-01T16:06:50.096Z,26.10
2022-11-01T16:11:57.069Z,23.70
2022-11-01T16:17:03.781Z,27.40
2022-11-01T16:22:30.092Z,22.90
2022-11-01T16:27:35.787Z,22.50
2022-11-01T16:32:38.707Z,20.80
2022-11-01T16:37:43.791Z,25.70
2022-11-01T16:42:48.545Z,24.90
2022-11-01T16:47:57.100Z,26.90
2022-11-01T16:53:00.805Z,25.80
2022-11-01T16:58:03.555Z,23.70
2022-11-01T17:03:06.432Z,24.90
2022-11-01T17:08:11.950Z,29.60
2022-11-01T17:20:26.399Z,27.40
2022-11-01T17:25:30.593Z,23.70
2022-11-01T17:30:33.084Z,26.90
2022-11-01T17:35:38.443Z,27.70
2022-11-01T17:40:45.246Z,28.80
2022-11-01T17:45:49.270Z,27.00
2022-11-01T17:50:52.178Z,28.90
2022-11-01T17:55:58.013Z,32.30
2022-11-01T18:01:00.631Z,31.80
2022-11-01T18:06:03.439Z,27.10
2022-11-01T18:11:09.211Z,35.00
2022-11-01T18:21:24.916Z,31.90
2022-11-01T18:26:29.796Z,32.70
2022-11-01T18:31:38.635Z,35.90
2022-11-01T18:36:47.705Z,37.00
2022-11-01T18:41:50.826Z,32.00
2022-11-01T18:47:18.831Z,31.40
2022-11-01T18:52:24.576Z,28.30
2022-11-01T18:57:28.794Z,32.60
2022-11-01T19:02:32.857Z,32.20
2022-11-01T19:08:04.808Z,30.50
2022-11-01T19:12:58.006Z,33.30
2022-11-01T19:18:03.471Z,33.10
2022-11-01T19:28:26.064Z,34.70
2022-11-01T19:33:31.843Z,29.10
2022-11-01T19:38:34.852Z,31.80
2022-11-01T19:43:37.378Z,30.50
2022-11-01T19:48:40.034Z,30.10
2022-11-01T19:53:42.799Z,34.60
2022-11-01T19:58:52.544Z,29.60
2022-11-01T20:03:59.925Z,30.10
2022-11-01T20:09:05.456Z,32.70
2022-11-01T20:14:07.972Z,33.00
2022-11-01T20:19:13.221Z,38.00
2022-11-01T20:24:19.007Z,35.20
2022-11-01T20:29:21.740Z,42.20
2022-11-01T20:34:25.588Z,41.80
2022-11-01T20:39:28.102Z,40.20
2022-11-01T20:44:30.733Z,39.30
2022-11-01T20:49:33.345Z,45.00
2022-11-01T20:54:35.880Z,52.50
2022-11-01T20:59:38.359Z,52.50
2022-11-01T21:04:40.916Z,46.80
2022-11-01T21:09:46.314Z,43.10
2022-11-01T21:14:49.180Z,47.50
2022-11-01T21:19:54.513Z,42.10
2022-11-01T21:24:58.355Z,45.10
2022-11-01T21:30:15.056Z,51.90
2022-11-01T21:35:19.504Z,45.60
2022-11-01T21:40:27.716Z,46.50
2022-11-01T21:45:32.176Z,44.60
2022-11-01T21:50:34.671Z,50.40
2022-11-01T21:55:37.174Z,47.10
2022-11-01T22:00:39.703Z,50.40
2022-11-01T22:05:42.242Z,49.50
2022-11-01T22:10:44.769Z,50.40
2022-11-01T22:15:47.260Z,53.30
2022-11-01T22:20:49.721Z,51.50
2022-11-01T22:25:52.260Z,54.80
2022-11-01T22:30:55.075Z,69.20
2022-11-01T22:35:59.034Z,63.40
2022-11-01T22:41:11.533Z,61.80
2022-11-01T22:46:21.697Z,62.10
2022-11-01T22:51:35.734Z,65.90
2022-11-01T22:56:38.236Z,69.90
2022-11-01T23:01:40.929Z,63.90
2022-11-01T23:06:43.469Z,68.70
2022-11-01T23:11:57.560Z,70.10
2022-11-01T23:17:00.071Z,66.30
2022-11-01T23:22:02.568Z,73.80
2022-11-01T23:27:05.171Z,74.40
2022-11-01T23:32:07.927Z,70.60
2022-11-01T23:37:16.419Z,67.50
2022-11-01T23:42:21.553Z,67.90
2022-11-01T23:47:27.960Z,68.60
2022-11-01T23:52:35.421Z,73.70
2022-11-01T23:57:40.317Z,81.90
